createdAt,value
2019-01-27T00:01:57.049Z,-2.74
2019-01-27T00:04:27.985Z,-2.76
2019-01-27T00:06:58.284Z,-2.80
2019-01-27T00:09:29.303Z,-2.57
2019-01-27T00:11:59.993Z,-2.74
2019-01-27T00:14:30.469Z,-2.66
2019-01-27T00:17:01.005Z,-2.49
2019-01-27T00:19:31.636Z,-2.80
2019-01-27T00:22:01.928Z,-2.50
2019-01-27T00:24:32.414Z,-2.55
2019-01-27T00:27:03.321Z,-2.36
2019-01-27T00:29:33.618Z,-2.52
2019-01-27T00:32:04.276Z,-2.57
2019-01-27T00:34:35.012Z,-2.47
2019-01-27T00:37:05.541Z,-2.39
2019-01-27T00:39:36.273Z,-2.40
2019-01-27T00:42:06.868Z,-2.45
2019-01-27T00:44:37.515Z,-2.35
2019-01-27T00:47:08.377Z,-2.15
2019-01-27T00:49:38.783Z,-2.14
2019-01-27T00:52:09.220Z,-2.21
2019-01-27T00:54:39.904Z,-1.98
2019-01-27T00:57:10.187Z,-2.17
2019-01-27T00:59:40.464Z,-2.18
2019-01-27T01:02:11.368Z,-2.11
2019-01-27T01:04:41.844Z,-2.11
2019-01-27T01:07:12.410Z,-2.03
2019-01-27T01:09:43.143Z,-2.21
2019-01-27T01:12:13.967Z,-2.23
2019-01-27T01:14:44.262Z,-2.25
2019-01-27T01:17:15.097Z,-2.12
2019-01-27T01:19:45.910Z,-2.21
2019-01-27T01:22:16.582Z,-2.14
2019-01-27T01:24:47.318Z,-2.06
2019-01-27T01:27:18.475Z,-1.98
2019-01-27T01:29:48.811Z,-1.97
2019-01-27T01:32:19.466Z,-2.13
2019-01-27T01:34:50.090Z,-2.15
2019-01-27T01:37:20.778Z,-2.00
2019-01-27T01:39:51.156Z,-2.08
2019-01-27T01:42:21.770Z,-2.30
2019-01-27T01:44:52.549Z,-2.22
2019-01-27T01:47:23.240Z,-2.36
2019-01-27T01:49:53.757Z,-2.62
2019-01-27T01:52:24.045Z,-2.67
2019-01-27T01:54:54.844Z,-2.64
2019-01-27T01:57:25.123Z,-2.73
2019-01-27T01:59:55.605Z,-2.73
2019-01-27T02:02:26.113Z,-2.81
2019-01-27T02:04:56.915Z,-2.73
2019-01-27T02:07:27.222Z,-2.80
2019-01-27T02:09:58.109Z,-2.71
2019-01-27T02:12:28.625Z,-2.79
2019-01-27T02:15:00.242Z,-2.89
2019-01-27T02:17:30.490Z,-3.03
2019-01-27T02:20:00.862Z,-3.01
2019-01-27T02:22:31.330Z,-2.87
2019-01-27T02:25:01.704Z,-2.95
2019-01-27T02:27:31.976Z,-2.96
2019-01-27T02:30:02.969Z,-2.85
2019-01-27T02:32:33.702Z,-2.88
2019-01-27T02:35:04.241Z,-2.81
2019-01-27T02:37:34.663Z,-2.84
2019-01-27T02:40:06.410Z,-2.96
2019-01-27T02:42:36.719Z,-3.01
2019-01-27T02:45:07.737Z,-3.04
2019-01-27T02:47:38.135Z,-3.16
2019-01-27T02:50:08.996Z,-3.11
2019-01-27T02:52:39.387Z,-3.14
2019-01-27T02:55:09.798Z,-3.11
2019-01-27T02:57:40.280Z,-3.18
2019-01-27T03:00:12.038Z,-3.12
2019-01-27T03:02:43.500Z,-3.17
2019-01-27T03:05:33.486Z,-3.27
2019-01-27T03:08:04.577Z,-3.35
2019-01-27T03:10:35.131Z,-3.45
2019-01-27T03:13:05.718Z,-3.46
2019-01-27T03:15:36.955Z,-3.47
2019-01-27T03:18:07.356Z,-3.45
2019-01-27T03:20:38.174Z,-3.40
2019-01-27T03:23:08.449Z,-3.52
2019-01-27T03:25:38.992Z,-3.59
2019-01-27T03:28:09.370Z,-3.60
2019-01-27T03:30:39.936Z,-3.61
2019-01-27T03:33:10.265Z,-3.64
2019-01-27T03:35:41.099Z,-3.66
2019-01-27T03:38:11.403Z,-3.49
2019-01-27T03:40:41.781Z,-3.45
2019-01-27T03:43:12.410Z,-3.52
2019-01-27T03:45:42.927Z,-3.45
2019-01-27T03:48:13.429Z,-3.28
2019-01-27T03:50:44.392Z,-3.31
2019-01-27T03:53:14.683Z,-3.28
2019-01-27T03:55:45.214Z,-3.46
2019-01-27T03:58:15.544Z,-3.39
2019-01-27T04:00:47.029Z,-3.27
2019-01-27T04:03:17.667Z,-3.47
2019-01-27T04:05:48.324Z,-3.64
2019-01-27T04:08:18.626Z,-3.63
2019-01-27T04:10:49.185Z,-3.66
2019-01-27T04:13:20.997Z,-3.54
2019-01-27T04:15:51.489Z,-3.57
2019-01-27T04:18:22.180Z,-3.62
2019-01-27T04:20:52.947Z,-3.77
2019-01-27T04:23:23.260Z,-3.91
2019-01-27T04:25:53.672Z,-3.89
2019-01-27T04:28:24.054Z,-3.82
2019-01-27T04:30:54.665Z,-3.60
2019-01-27T04:33:25.332Z,-3.87
2019-01-27T04:35:56.048Z,-4.05
2019-01-27T04:38:26.727Z,-4.11
2019-01-27T04:40:57.643Z,-4.02
2019-01-27T04:43:27.924Z,-4.01
2019-01-27T04:45:58.546Z,-3.94
2019-01-27T04:48:29.454Z,-4.06
2019-01-27T04:51:00.047Z,-4.12
2019-01-27T04:53:30.395Z,-4.15
2019-01-27T04:56:00.957Z,-4.07
2019-01-27T04:58:31.398Z,-4.05
2019-01-27T05:01:02.207Z,-3.84
2019-01-27T05:03:57.494Z,-3.66
2019-01-27T05:06:27.974Z,-3.66
2019-01-27T05:08:58.378Z,-3.68
2019-01-27T05:11:28.723Z,-3.86
2019-01-27T05:13:59.058Z,-3.87
2019-01-27T05:16:29.708Z,-3.79
2019-01-27T05:18:59.996Z,-3.74
2019-01-27T05:21:30.574Z,-3.54
2019-01-27T05:24:01.256Z,-3.43
2019-01-27T05:26:31.615Z,-3.35
2019-01-27T05:29:01.969Z,-3.22
2019-01-27T05:31:32.640Z,-3.25
2019-01-27T05:34:03.535Z,-3.03
2019-01-27T05:36:33.850Z,-2.99
2019-01-27T05:39:06.994Z,-2.97
2019-01-27T05:41:37.892Z,-3.04
2019-01-27T05:44:08.200Z,-3.09
2019-01-27T05:46:39.071Z,-3.28
2019-01-27T05:49:09.732Z,-3.40
2019-01-27T05:51:40.004Z,-3.51
2019-01-27T05:54:10.372Z,-3.57
2019-01-27T05:56:40.761Z,-3.52
2019-01-27T05:59:11.124Z,-3.43
2019-01-27T06:01:42.392Z,-3.24
2019-01-27T06:04:12.731Z,-3.38
2019-01-27T06:06:43.255Z,-3.20
2019-01-27T06:09:13.908Z,-3.45
2019-01-27T06:11:44.228Z,-3.61
2019-01-27T06:14:14.560Z,-3.23
2019-01-27T06:16:45.504Z,-3.04
2019-01-27T06:19:15.816Z,-2.94
2019-01-27T06:21:46.122Z,-2.91
2019-01-27T06:24:16.793Z,-2.92
2019-01-27T06:26:47.335Z,-2.73
2019-01-27T06:29:17.662Z,-2.95
2019-01-27T06:31:48.508Z,-2.80
2019-01-27T06:34:20.438Z,-2.67
2019-01-27T06:36:51.232Z,-2.77
2019-01-27T06:39:21.761Z,-3.12
2019-01-27T06:41:52.992Z,-2.61
2019-01-27T06:44:23.739Z,-2.34
2019-01-27T06:46:54.309Z,-2.24
2019-01-27T06:49:24.719Z,-2.12
2019-01-27T06:51:55.116Z,-1.96
2019-01-27T06:54:25.434Z,-1.80
2019-01-27T06:56:55.863Z,-1.59
2019-01-27T06:59:30.907Z,-1.46
2019-01-27T07:02:09.614Z,-1.46
2019-01-27T07:05:02.301Z,-1.35
2019-01-27T07:07:54.570Z,-1.30
2019-01-27T07:10:49.767Z,-1.21
2019-01-27T07:13:38.536Z,-1.24
2019-01-27T07:16:43.203Z,-1.23
2019-01-27T07:19:44.739Z,-1.27
2019-01-27T07:22:37.367Z,-1.26
2019-01-27T07:25:42.757Z,-1.29
2019-01-27T07:28:35.041Z,-1.30
2019-01-27T07:31:29.335Z,-1.29
2019-01-27T07:34:19.016Z,-1.15
2019-01-27T07:37:11.090Z,-1.32
2019-01-27T07:39:58.185Z,-1.27
2019-01-27T07:42:45.322Z,-1.11
2019-01-27T07:45:35.108Z,-1.01
2019-01-27T07:48:24.111Z,-0.93
2019-01-27T07:51:25.608Z,-0.73
2019-01-27T07:54:19.316Z,-0.55
2019-01-27T07:57:07.640Z,-0.33
2019-01-27T07:59:56.895Z,-0.19
2019-01-27T08:02:38.423Z,-0.10
2019-01-27T08:05:34.826Z,0.10
2019-01-27T08:08:24.158Z,0.23
2019-01-27T08:11:13.478Z,0.28
2019-01-27T08:13:49.525Z,-0.24
2019-01-27T08:16:44.793Z,-0.66
2019-01-27T08:19:40.859Z,-0.25
2019-01-27T08:22:28.801Z,-0.32
2019-01-27T08:25:33.436Z,-0.54
2019-01-27T08:28:21.740Z,-0.50
2019-01-27T08:31:01.326Z,-0.57
2019-01-27T08:33:56.598Z,-0.05
2019-01-27T08:36:36.437Z,0.05
2019-01-27T08:39:43.458Z,0.48
2019-01-27T08:42:31.402Z,0.71
2019-01-27T08:45:33.334Z,0.89
2019-01-27T08:48:03.693Z,1.14
2019-01-27T08:50:34.248Z,1.48
2019-01-27T08:53:05.206Z,1.42
2019-01-27T08:55:35.521Z,1.87
2019-01-27T08:58:06.449Z,1.71
2019-01-27T09:00:38.382Z,2.05
2019-01-27T09:03:36.800Z,2.01
2019-01-27T09:06:32.670Z,2.10
2019-01-27T09:09:25.108Z,2.46
2019-01-27T09:12:20.402Z,3.05
2019-01-27T09:15:21.981Z,3.48
2019-01-27T09:18:26.980Z,3.62
2019-01-27T09:21:13.118Z,3.68
2019-01-27T09:23:59.638Z,3.71
2019-01-27T09:26:42.183Z,4.64
2019-01-27T09:29:31.408Z,5.01
2019-01-27T09:32:19.846Z,5.04
2019-01-27T09:35:15.107Z,5.21
2019-01-27T09:38:16.853Z,5.38
2019-01-27T09:41:08.992Z,5.36
2019-01-27T09:44:01.172Z,5.77
2019-01-27T09:46:53.732Z,6.11
2019-01-27T09:49:40.724Z,6.77
2019-01-27T09:52:19.322Z,6.64
2019-01-27T09:55:23.705Z,7.13
2019-01-27T09:58:12.193Z,5.55
2019-01-27T10:00:46.780Z,4.66
2019-01-27T10:03:40.337Z,5.10
2019-01-27T10:06:44.986Z,6.24
2019-01-27T10:09:32.845Z,7.21
2019-01-27T10:12:09.046Z,7.29
2019-01-27T10:14:53.503Z,7.73
2019-01-27T10:17:57.984Z,8.07
2019-01-27T10:20:50.050Z,8.45
2019-01-27T10:23:36.413Z,8.58
2019-01-27T10:26:17.057Z,8.83
2019-01-27T10:29:04.863Z,9.51
2019-01-27T10:31:53.114Z,9.10
2019-01-27T10:34:45.616Z,9.39
2019-01-27T10:37:33.490Z,9.37
2019-01-27T10:40:26.722Z,9.49
2019-01-27T10:43:11.525Z,9.34
2019-01-27T10:46:10.467Z,9.30
2019-01-27T10:48:59.772Z,9.11
2019-01-27T10:51:42.464Z,9.50
2019-01-27T10:54:32.132Z,9.74
2019-01-27T10:57:07.882Z,10.01
2019-01-27T11:00:06.251Z,10.49
2019-01-27T11:02:55.898Z,10.25
2019-01-27T11:05:54.406Z,10.71
2019-01-27T11:08:33.336Z,10.73
2019-01-27T11:11:22.883Z,10.57
2019-01-27T11:14:15.442Z,10.82
2019-01-27T11:17:02.374Z,10.58
2019-01-27T11:19:50.510Z,10.32
2019-01-27T11:22:45.776Z,10.25
2019-01-27T11:25:27.789Z,10.43
2019-01-27T11:28:14.765Z,10.24
2019-01-27T11:31:10.074Z,10.29
2019-01-27T11:34:00.380Z,10.31
2019-01-27T11:36:53.104Z,10.36
2019-01-27T11:39:42.335Z,10.66
2019-01-27T11:42:23.849Z,10.48
2019-01-27T11:45:11.506Z,10.99
2019-01-27T11:47:47.828Z,11.03
2019-01-27T11:50:21.416Z,10.54
2019-01-27T11:52:55.253Z,10.65
2019-01-27T11:55:25.550Z,11.05
2019-01-27T11:57:56.143Z,11.33
2019-01-27T12:00:33.574Z,11.16
2019-01-27T12:03:04.087Z,10.94
2019-01-27T12:05:34.855Z,11.48
2019-01-27T12:08:05.658Z,11.89
2019-01-27T12:10:35.947Z,11.98
2019-01-27T12:13:06.788Z,11.90
2019-01-27T12:15:37.155Z,11.98
2019-01-27T12:18:07.544Z,11.79
2019-01-27T12:20:38.503Z,11.96
2019-01-27T12:23:09.147Z,12.08
2019-01-27T12:25:39.457Z,12.27
2019-01-27T12:28:09.962Z,11.91
2019-01-27T12:30:40.444Z,12.03
2019-01-27T12:33:11.137Z,12.07
2019-01-27T12:35:41.912Z,12.26
2019-01-27T12:38:12.244Z,12.48
2019-01-27T12:40:42.784Z,12.18
2019-01-27T12:43:13.672Z,12.00
2019-01-27T12:45:43.976Z,12.32
2019-01-27T12:48:14.779Z,12.30
2019-01-27T12:50:45.148Z,12.24
2019-01-27T12:53:15.624Z,12.00
2019-01-27T12:55:47.039Z,11.41
2019-01-27T12:58:17.516Z,11.80
2019-01-27T13:00:54.707Z,11.08
2019-01-27T13:03:25.360Z,10.58
2019-01-27T13:05:55.655Z,11.24
2019-01-27T13:08:26.265Z,11.84
2019-01-27T13:10:57.039Z,11.68
2019-01-27T13:13:27.398Z,12.01
2019-01-27T13:15:57.852Z,11.93
2019-01-27T13:18:28.627Z,11.33
2019-01-27T13:21:00.019Z,10.64
2019-01-27T13:23:30.674Z,10.11
2019-01-27T13:26:01.429Z,9.71
2019-01-27T13:28:31.927Z,9.47
2019-01-27T13:31:02.959Z,9.96
2019-01-27T13:33:33.257Z,10.24
2019-01-27T13:36:05.066Z,10.00
2019-01-27T13:38:35.724Z,9.68
2019-01-27T13:41:06.175Z,10.04
2019-01-27T13:43:36.488Z,10.41
2019-01-27T13:46:07.332Z,10.14
2019-01-27T13:48:37.702Z,10.61
2019-01-27T13:51:07.986Z,10.47
2019-01-27T13:53:38.979Z,9.45
2019-01-27T13:56:09.834Z,9.86
2019-01-27T13:58:40.338Z,10.30
2019-01-27T14:01:11.016Z,10.34
2019-01-27T14:03:41.726Z,9.99
2019-01-27T14:06:12.547Z,10.12
2019-01-27T14:08:43.103Z,10.36
2019-01-27T14:11:13.509Z,10.49
2019-01-27T14:13:44.255Z,10.24
2019-01-27T14:16:14.897Z,10.30
2019-01-27T14:18:45.350Z,10.24
2019-01-27T14:21:16.795Z,10.58
2019-01-27T14:23:47.558Z,10.61
2019-01-27T14:26:18.132Z,10.80
2019-01-27T14:28:48.598Z,8.68
2019-01-27T14:31:19.688Z,8.87
2019-01-27T14:33:49.997Z,8.45
2019-01-27T14:36:20.540Z,8.56
2019-01-27T14:38:51.213Z,8.53
2019-01-27T14:41:21.512Z,7.92
2019-01-27T14:43:51.814Z,7.25
2019-01-27T14:46:22.540Z,6.86
2019-01-27T14:48:53.070Z,6.17
2019-01-27T14:51:23.334Z,6.40
2019-01-27T14:53:53.705Z,6.26
2019-01-27T14:56:24.571Z,5.91
2019-01-27T14:58:54.848Z,5.83
2019-01-27T15:01:25.424Z,5.46
2019-01-27T15:03:55.981Z,5.11
2019-01-27T15:06:26.500Z,4.52
2019-01-27T15:08:57.017Z,4.37
2019-01-27T15:11:27.325Z,3.95
2019-01-27T15:13:58.196Z,3.60
2019-01-27T15:16:28.634Z,3.33
2019-01-27T15:18:58.917Z,3.19
2019-01-27T15:21:29.671Z,2.79
2019-01-27T15:24:00.087Z,2.82
2019-01-27T15:26:30.441Z,2.61
2019-01-27T15:29:00.862Z,2.74
2019-01-27T15:31:31.564Z,2.30
2019-01-27T15:34:01.847Z,2.31
2019-01-27T15:36:32.383Z,2.23
2019-01-27T15:39:04.743Z,1.84
2019-01-27T15:41:36.409Z,1.66
2019-01-27T15:44:06.979Z,1.35
2019-01-27T15:46:37.266Z,1.21
2019-01-27T15:49:08.009Z,1.12
2019-01-27T15:51:38.732Z,1.12
2019-01-27T15:54:09.264Z,1.05
2019-01-27T15:56:39.579Z,0.96
2019-01-27T15:59:10.264Z,1.03
2019-01-27T16:01:40.621Z,1.05
2019-01-27T16:04:10.945Z,0.97
2019-01-27T16:06:41.629Z,0.95
2019-01-27T16:09:12.392Z,0.75
2019-01-27T16:11:43.075Z,0.72
2019-01-27T16:14:13.509Z,0.57
2019-01-27T16:16:44.903Z,0.46
2019-01-27T16:19:15.445Z,0.52
2019-01-27T16:21:45.725Z,0.41
2019-01-27T16:24:21.614Z,0.40
2019-01-27T16:26:52.302Z,0.32
2019-01-27T16:29:38.603Z,0.24
2019-01-27T16:32:17.041Z,0.24
2019-01-27T16:34:52.018Z,0.08
2019-01-27T16:37:22.776Z,-0.02
2019-01-27T16:39:53.227Z,-0.02
2019-01-27T16:42:23.940Z,0.16
2019-01-27T16:44:54.261Z,0.40
2019-01-27T16:47:24.793Z,0.45
2019-01-27T16:49:55.292Z,0.43
2019-01-27T16:52:25.550Z,0.20
2019-01-27T16:54:56.604Z,0.38
2019-01-27T16:57:27.228Z,0.35
2019-01-27T16:59:57.590Z,0.18
2019-01-27T17:02:28.273Z,0.15
2019-01-27T17:04:59.202Z,0.00
2019-01-27T17:07:30.674Z,-0.19
2019-01-27T17:10:01.411Z,-0.24
2019-01-27T17:12:32.139Z,-0.21
2019-01-27T17:15:02.631Z,-0.04
2019-01-27T17:17:33.391Z,-0.02
2019-01-27T17:20:03.949Z,-0.11
2019-01-27T17:22:34.683Z,-0.25
2019-01-27T17:25:06.826Z,-0.16
2019-01-27T17:27:37.339Z,-0.05
2019-01-27T17:30:11.019Z,0.04
2019-01-27T17:32:41.612Z,0.16
2019-01-27T17:35:13.470Z,0.33
2019-01-27T17:37:43.770Z,0.44
2019-01-27T17:40:15.483Z,0.71
2019-01-27T17:42:45.835Z,0.56
2019-01-27T17:45:16.869Z,0.48
2019-01-27T17:47:47.487Z,0.47
2019-01-27T17:50:18.164Z,0.46
2019-01-27T17:52:49.015Z,0.45
2019-01-27T17:55:37.323Z,0.49
2019-01-27T17:58:27.947Z,0.43
2019-01-27T18:01:16.244Z,-0.06
2019-01-27T18:04:05.499Z,-0.13
2019-01-27T18:06:47.042Z,-0.24
2019-01-27T18:09:24.529Z,0.05
2019-01-27T18:12:01.021Z,-0.02
2019-01-27T18:14:34.798Z,-0.19
2019-01-27T18:17:05.528Z,0.06
2019-01-27T18:19:35.904Z,0.04
2019-01-27T18:22:06.531Z,-0.08
2019-01-27T18:24:36.959Z,-0.17
2019-01-27T18:27:07.401Z,-0.16
2019-01-27T18:29:38.133Z,-0.20
2019-01-27T18:32:08.649Z,-0.11
2019-01-27T18:34:38.956Z,-0.27
2019-01-27T18:37:09.762Z,-0.17
2019-01-27T18:39:40.347Z,-0.05
2019-01-27T18:42:11.070Z,-0.20
2019-01-27T18:44:41.721Z,-0.18
2019-01-27T18:47:12.148Z,-0.18
2019-01-27T18:49:42.427Z,0.12
2019-01-27T18:52:12.923Z,-0.12
2019-01-27T18:55:02.242Z,-0.20
2019-01-27T18:57:38.611Z,-0.43
2019-01-27T19:00:31.652Z,-0.46
2019-01-27T19:03:13.234Z,-0.67
2019-01-27T19:06:09.049Z,-0.83
2019-01-27T19:08:57.171Z,-1.04
2019-01-27T19:11:52.018Z,-0.78
2019-01-27T19:14:39.782Z,-0.81
2019-01-27T19:17:27.772Z,-0.59
2019-01-27T19:20:18.482Z,-0.59
2019-01-27T19:23:06.676Z,-0.72
2019-01-27T19:25:58.765Z,-0.73
2019-01-27T19:28:37.176Z,-0.91
2019-01-27T19:31:25.343Z,-1.15
2019-01-27T19:34:13.596Z,-1.08
2019-01-27T19:37:01.878Z,-0.99
2019-01-27T19:40:02.362Z,-0.98
2019-01-27T19:42:43.075Z,-1.21
2019-01-27T19:45:23.847Z,-1.52
2019-01-27T19:48:07.654Z,-1.58
2019-01-27T19:51:00.282Z,-1.60
2019-01-27T19:53:46.138Z,-1.34
2019-01-27T19:56:27.451Z,-1.09
2019-01-27T19:59:22.834Z,-0.99
2019-01-27T20:02:11.499Z,-1.03
2019-01-27T20:05:09.509Z,-1.15
2019-01-27T20:08:05.295Z,-1.43
2019-01-27T20:10:58.432Z,-1.16
2019-01-27T20:13:59.997Z,-1.34
2019-01-27T20:16:51.475Z,-1.24
2019-01-27T20:19:39.482Z,-1.39
2019-01-27T20:22:47.295Z,-1.29
2019-01-27T20:25:43.246Z,-1.18
2019-01-27T20:28:44.884Z,-1.35
2019-01-27T20:31:37.922Z,-1.85
2019-01-27T20:34:42.805Z,-1.56
2019-01-27T20:37:19.009Z,-1.59
2019-01-27T20:40:01.639Z,-1.63
2019-01-27T20:42:42.835Z,-1.48
2019-01-27T20:45:32.886Z,-1.36
2019-01-27T20:48:17.648Z,-1.17
2019-01-27T20:51:16.044Z,-1.23
2019-01-27T20:54:08.226Z,-1.36
2019-01-27T20:56:45.841Z,-1.47
2019-01-27T20:59:34.053Z,-1.54
2019-01-27T21:02:26.319Z,-1.59
2019-01-27T21:05:20.799Z,-1.50
2019-01-27T21:08:06.003Z,-1.65
2019-01-27T21:10:46.591Z,-1.50
2019-01-27T21:13:35.910Z,-1.61
2019-01-27T21:16:18.459Z,-1.37
2019-01-27T21:18:56.722Z,-1.30
2019-01-27T21:21:27.467Z,-1.34
2019-01-27T21:23:58.212Z,-1.37
2019-01-27T21:26:28.590Z,-1.18
2019-01-27T21:29:00.204Z,-1.13
2019-01-27T21:31:30.950Z,-1.66
2019-01-27T21:34:01.635Z,-1.71
2019-01-27T21:36:32.021Z,-1.57
2019-01-27T21:39:02.805Z,-1.90
2019-01-27T21:41:33.092Z,-1.91
2019-01-27T21:44:03.440Z,-1.72
2019-01-27T21:46:34.259Z,-1.41
2019-01-27T21:49:04.894Z,-1.51
2019-01-27T21:51:35.727Z,-1.30
2019-01-27T21:54:06.231Z,-1.12
2019-01-27T21:56:36.801Z,-1.18
2019-01-27T21:59:07.464Z,-1.33
2019-01-27T22:01:37.970Z,-1.45
2019-01-27T22:04:08.327Z,-1.75
2019-01-27T22:06:39.250Z,-1.77
2019-01-27T22:09:10.620Z,-1.66
2019-01-27T22:11:40.905Z,-1.56
2019-01-27T22:14:11.302Z,-1.97
2019-01-27T22:16:41.718Z,-2.09
2019-01-27T22:19:11.999Z,-1.90
2019-01-27T22:21:42.892Z,-1.94
2019-01-27T22:24:13.196Z,-2.09
2019-01-27T22:26:43.843Z,-2.10
2019-01-27T22:29:14.302Z,-1.89
2019-01-27T22:31:44.627Z,-1.75
2019-01-27T22:34:15.312Z,-1.80
2019-01-27T22:36:46.011Z,-1.59
2019-01-27T22:39:16.267Z,-1.65
2019-01-27T22:41:46.952Z,-1.85
2019-01-27T22:44:17.370Z,-1.82
2019-01-27T22:46:47.713Z,-1.64
2019-01-27T22:49:18.178Z,-1.51
2019-01-27T22:51:48.757Z,-1.16
2019-01-27T22:54:19.051Z,-1.17
2019-01-27T22:56:49.573Z,-1.20
2019-01-27T22:59:19.884Z,-1.21
2019-01-27T23:01:50.767Z,-1.44
2019-01-27T23:04:21.457Z,-1.52
2019-01-27T23:06:52.055Z,-1.72
2019-01-27T23:09:22.518Z,-1.67
2019-01-27T23:11:53.328Z,-1.35
2019-01-27T23:14:23.614Z,-1.26
2019-01-27T23:16:53.950Z,-1.42
2019-01-27T23:19:24.747Z,-1.15
2019-01-27T23:21:55.176Z,-1.02
2019-01-27T23:24:25.476Z,-1.05
2019-01-27T23:26:56.152Z,-1.01
2019-01-27T23:29:26.701Z,-0.98
2019-01-27T23:31:57.171Z,-1.05
2019-01-27T23:34:27.950Z,-1.53
2019-01-27T23:36:58.631Z,-1.85
2019-01-27T23:39:29.942Z,-2.02
2019-01-27T23:42:00.562Z,-2.06
2019-01-27T23:44:31.167Z,-1.81
2019-01-27T23:47:01.518Z,-1.42
2019-01-27T23:49:32.014Z,-1.30
2019-01-27T23:52:03.063Z,-1.32
2019-01-27T23:54:34.437Z,-1.24
2019-01-27T23:57:04.905Z,-1.07
2019-01-27T23:59:35.430Z,-1.03
